Time;durP1;ratioP1;P1;durP2;ratioP2;P2;SDS_P1;SDS_P2;PMS_P1;PMS_P2;Temp;Humidity;BMP_temperature;BMP_pressure;BME280_temperature;BME280_humidity;BME280_pressure;Samples;Min_cycle;Max_cycle;Signal;HPM_P1;HPM_P2
2021/05/10 00:00:46;;;;;;;6.07;5.47;;;17.90;91.40;;;;;;6213409;23;20000;-69
2021/05/10 00:03:12;;;;;;;5.93;5.43;;;17.90;91.30;;;;;;6214212;23;20414;-69
2021/05/10 00:05:38;;;;;;;7.15;5.50;;;17.80;91.40;;;;;;6214520;23;20000;-64
2021/05/10 00:08:05;;;;;;;7.25;6.40;;;17.90;91.40;;;;;;6213801;23;20051;-70
2021/05/10 00:10:30;;;;;;;7.63;6.10;;;17.80;91.40;;;;;;6214716;23;20077;-65
2021/05/10 00:12:56;;;;;;;8.10;6.68;;;17.90;91.30;;;;;;6213701;23;20036;-65
2021/05/10 00:15:22;;;;;;;6.10;5.50;;;17.90;91.20;;;;;;6210864;23;19996;-65
2021/05/10 00:17:47;;;;;;;8.70;6.88;;;17.80;91.20;;;;;;6213498;23;20020;-64
2021/05/10 00:20:13;;;;;;;6.95;5.65;;;17.80;91.20;;;;;;6214574;23;20050;-64
2021/05/10 00:22:39;;;;;;;5.85;5.25;;;17.80;91.20;;;;;;6213294;23;20028;-64
2021/05/10 00:25:05;;;;;;;7.15;6.45;;;17.80;91.30;;;;;;6214718;23;20478;-64
2021/05/10 00:27:30;;;;;;;9.45;6.50;;;17.80;91.30;;;;;;6214137;23;20074;-67
2021/05/10 00:29:56;;;;;;;7.13;6.20;;;17.80;91.40;;;;;;6213927;23;19997;-64
2021/05/10 00:32:21;;;;;;;9.98;6.55;;;17.70;91.30;;;;;;6214778;23;20362;-65
2021/05/10 00:34:47;;;;;;;8.23;6.53;;;17.70;91.30;;;;;;6214492;23;20000;-64
2021/05/10 00:37:13;;;;;;;8.93;6.38;;;17.70;91.20;;;;;;6213709;23;20341;-65
2021/05/10 00:39:38;;;;;;;7.20;6.25;;;17.70;91.30;;;;;;6214652;23;20409;-65
2021/05/10 00:42:04;;;;;;;9.50;7.00;;;17.70;91.40;;;;;;6214598;23;20429;-65
2021/05/10 00:44:30;;;;;;;8.05;6.50;;;17.70;91.50;;;;;;6213605;23;20310;-64
2021/05/10 00:46:56;;;;;;;8.15;6.50;;;17.70;91.50;;;;;;6213362;23;20005;-64
2021/05/10 00:49:21;;;;;;;8.07;6.80;;;17.70;91.50;;;;;;6214567;23;20085;-65
2021/05/10 00:51:48;;;;;;;11.00;6.40;;;17.70;91.60;;;;;;6213589;23;20342;-65
2021/05/10 00:54:14;;;;;;;7.38;6.57;;;17.70;91.50;;;;;;6214282;23;20325;-66
2021/05/10 00:56:39;;;;;;;7.47;6.40;;;17.60;91.60;;;;;;6214398;23;20417;-66
2021/05/10 00:59:05;;;;;;;8.70;6.75;;;17.60;91.60;;;;;;6213551;23;20008;-65
2021/05/10 01:01:31;;;;;;;6.80;6.20;;;17.60;91.70;;;;;;6212690;23;20035;-66
2021/05/10 01:03:57;;;;;;;7.88;6.32;;;17.60;91.70;;;;;;6213922;23;20068;-66
2021/05/10 01:06:22;;;;;;;8.50;5.65;;;17.60;91.70;;;;;;6214423;23;20031;-70
2021/05/10 01:08:48;;;;;;;7.18;6.22;;;17.60;91.80;;;;;;6214252;23;20012;-65
2021/05/10 01:11:14;;;;;;;7.75;6.18;;;17.50;91.90;;;;;;6213460;23;19997;-66
2021/05/10 01:13:40;;;;;;;9.65;6.25;;;17.60;91.70;;;;;;6214102;23;20000;-70
2021/05/10 01:16:06;;;;;;;6.95;5.88;;;17.50;91.30;;;;;;6212754;23;20012;-67
2021/05/10 01:18:32;;;;;;;6.85;6.15;;;17.60;91.30;;;;;;6213056;23;20495;-64
2021/05/10 01:20:59;;;;;;;7.82;5.90;;;17.60;91.40;;;;;;6214484;23;20004;-67
2021/05/10 01:23:25;;;;;;;8.27;6.20;;;17.60;91.30;;;;;;6214699;23;20015;-66
2021/05/10 01:25:50;;;;;;;7.35;5.88;;;17.60;91.30;;;;;;6213300;23;20008;-67
2021/05/10 01:28:16;;;;;;;7.60;6.80;;;17.60;91.40;;;;;;6212285;23;20058;-66
2021/05/10 01:30:47;;;;;;;7.40;5.97;;;17.60;91.50;;;;;;6214065;23;20000;-69
2021/05/10 01:33:13;;;;;;;9.25;5.88;;;17.60;91.90;;;;;;6212908;23;20425;-68
2021/05/10 01:35:41;;;;;;;8.27;5.72;;;17.60;91.70;;;;;;6214131;23;20072;-67
2021/05/10 01:38:08;;;;;;;8.73;6.88;;;17.50;91.80;;;;;;6213972;23;20055;-67
2021/05/10 01:40:34;;;;;;;7.95;5.97;;;17.50;91.90;;;;;;6211452;23;20000;-69
2021/05/10 01:43:00;;;;;;;6.32;5.68;;;17.40;92.00;;;;;;6213974;23;20005;-67
2021/05/10 01:45:26;;;;;;;9.18;5.93;;;17.40;92.00;;;;;;6214100;23;20108;-70
2021/05/10 01:47:58;;;;;;;10.38;5.82;;;17.40;92.00;;;;;;6212921;23;20092;-69
2021/05/10 01:50:24;;;;;;;7.00;6.30;;;17.40;92.20;;;;;;6214188;23;20001;-65
2021/05/10 01:52:50;;;;;;;8.55;6.20;;;17.40;92.20;;;;;;6214311;23;20007;-65
2021/05/10 01:55:16;;;;;;;10.93;7.18;;;17.30;92.20;;;;;;6211217;23;20000;-65
2021/05/10 01:57:53;;;;;;;6.35;5.65;;;17.20;92.30;;;;;;6213859;23;20008;-64
2021/05/10 02:00:22;;;;;;;6.75;6.05;;;17.20;92.40;;;;;;6211674;23;20015;-65
2021/05/10 02:02:48;;;;;;;7.93;6.10;;;17.10;92.50;;;;;;6213850;23;20054;-65
2021/05/10 02:05:14;;;;;;;6.60;6.00;;;17.10;92.60;;;;;;6213655;23;20365;-63
2021/05/10 02:07:42;;;;;;;7.15;5.95;;;17.00;92.70;;;;;;6213266;23;20011;-63
2021/05/10 02:10:14;;;;;;;7.22;5.60;;;17.00;92.80;;;;;;6213842;23;19997;-64
2021/05/10 02:12:41;;;;;;;8.10;6.00;;;16.90;92.90;;;;;;6213727;23;20456;-65
2021/05/10 02:15:09;;;;;;;5.95;5.35;;;16.90;92.90;;;;;;6211358;23;20011;-64
2021/05/10 02:17:36;;;;;;;6.15;5.55;;;16.90;92.90;;;;;;6213579;23;20088;-64
2021/05/10 02:20:04;;;;;;;8.02;5.85;;;16.90;92.90;;;;;;6212165;23;20032;-64
2021/05/10 02:22:29;;;;;;;6.95;5.60;;;16.90;93.00;;;;;;6213132;23;20004;-64
2021/05/10 02:24:55;;;;;;;6.78;5.72;;;16.80;93.00;;;;;;6213412;23;20003;-66
2021/05/10 02:27:20;;;;;;;8.07;6.00;;;16.80;93.00;;;;;;6213918;23;20001;-65
2021/05/10 02:29:46;;;;;;;6.30;5.65;;;16.80;92.90;;;;;;6212951;23;20012;-66
2021/05/10 02:32:12;;;;;;;6.30;5.53;;;16.80;92.90;;;;;;6213709;23;20128;-66
2021/05/10 02:34:37;;;;;;;6.60;5.63;;;16.80;93.00;;;;;;6213550;23;19997;-68
2021/05/10 02:37:03;;;;;;;7.00;5.75;;;16.80;92.90;;;;;;6212679;23;20001;-67
2021/05/10 02:39:28;;;;;;;6.88;5.65;;;16.80;93.00;;;;;;6214277;23;20016;-66
2021/05/10 02:41:54;;;;;;;8.65;5.47;;;16.80;93.00;;;;;;6213742;23;20000;-66
2021/05/10 02:44:20;;;;;;;6.18;5.57;;;16.80;93.00;;;;;;6212740;23;20012;-66
2021/05/10 02:46:45;;;;;;;10.57;5.90;;;16.80;93.10;;;;;;6215007;23;20024;-67
2021/05/10 02:49:12;;;;;;;6.75;5.03;;;16.80;93.10;;;;;;6215907;23;20004;-67
2021/05/10 02:51:38;;;;;;;6.18;5.13;;;16.70;93.00;;;;;;6214669;23;20008;-69
2021/05/10 02:54:04;;;;;;;7.00;5.03;;;16.80;93.00;;;;;;6215511;23;20051;-68
2021/05/10 02:56:29;;;;;;;5.97;4.95;;;16.80;93.00;;;;;;6215365;23;20313;-66
2021/05/10 02:58:55;;;;;;;6.30;4.93;;;16.80;93.10;;;;;;6215611;23;20055;-67
2021/05/10 03:01:21;;;;;;;6.03;4.57;;;16.80;93.10;;;;;;6215920;23;20004;-66
2021/05/10 03:03:46;;;;;;;6.38;4.32;;;16.80;93.10;;;;;;6214492;23;20011;-68
2021/05/10 03:06:12;;;;;;;6.97;4.45;;;16.80;93.10;;;;;;6215528;23;20071;-71
2021/05/10 03:08:38;;;;;;;5.43;4.50;;;16.70;93.10;;;;;;6215376;23;20039;-66
2021/05/10 03:11:03;;;;;;;5.32;4.10;;;16.70;93.10;;;;;;6214762;23;20051;-68
2021/05/10 03:13:29;;;;;;;5.72;3.97;;;16.70;93.10;;;;;;6215450;23;20005;-68
2021/05/10 03:15:55;;;;;;;4.38;3.97;;;16.70;93.20;;;;;;6215592;23;20126;-65
2021/05/10 03:18:21;;;;;;;6.13;3.72;;;16.70;93.30;;;;;;6214691;23;20154;-66
2021/05/10 03:20:46;;;;;;;4.13;3.50;;;16.60;93.30;;;;;;6215337;23;20048;-67
2021/05/10 03:23:12;;;;;;;5.93;3.42;;;16.60;93.40;;;;;;6213423;23;20406;-67
2021/05/10 03:25:37;;;;;;;5.80;3.20;;;16.70;93.50;;;;;;6214734;23;20080;-67
2021/05/10 03:28:03;;;;;;;4.80;3.10;;;16.60;93.40;;;;;;6215261;23;20004;-70
2021/05/10 03:30:28;;;;;;;3.90;2.70;;;16.70;92.80;;;;;;6215528;23;20058;-66
2021/05/10 03:32:54;;;;;;;3.72;3.10;;;16.70;92.70;;;;;;6212630;23;20001;-65
2021/05/10 03:35:21;;;;;;;3.45;2.78;;;16.70;92.70;;;;;;6215175;23;20000;-70
2021/05/10 03:37:47;;;;;;;4.88;2.47;;;16.70;92.70;;;;;;6213563;23;20085;-68
2021/05/10 03:40:15;;;;;;;3.80;2.22;;;16.70;92.40;;;;;;6214092;23;20096;-66
2021/05/10 03:42:41;;;;;;;3.60;2.38;;;16.80;92.30;;;;;;6214957;23;20489;-69
2021/05/10 03:45:08;;;;;;;3.03;2.28;;;16.80;92.20;;;;;;6215493;23;20039;-69
2021/05/10 03:47:40;;;;;;;4.40;2.22;;;16.80;92.00;;;;;;6214115;23;20007;-66
2021/05/10 03:50:10;;;;;;;3.60;2.70;;;16.90;92.00;;;;;;6213482;23;20480;-66
2021/05/10 03:52:35;;;;;;;6.07;2.45;;;16.90;91.90;;;;;;6215126;23;20043;-66
2021/05/10 03:55:01;;;;;;;3.17;2.30;;;16.90;92.00;;;;;;6214267;23;19997;-65
2021/05/10 03:57:27;;;;;;;4.43;2.00;;;16.90;91.70;;;;;;6215123;23;20035;-66
2021/05/10 03:59:52;;;;;;;4.47;2.10;;;16.90;91.50;;;;;;6214029;23;20418;-66
2021/05/10 04:02:18;;;;;;;3.50;2.03;;;16.90;91.10;;;;;;6213648;23;20035;-66
2021/05/10 04:04:52;;;;;;;2.05;1.67;;;16.90;90.80;;;;;;6215139;23;20007;-65
2021/05/10 04:10:04;;;;;;;2.42;1.58;;;17.10;90.30;;;;;;6215458;23;20545;-68
2021/05/10 04:15:14;;;;;;;3.08;1.65;;;17.30;87.20;;;;;;6213843;23;20079;-65
2021/05/10 04:17:40;;;;;;;3.20;1.80;;;17.50;85.80;;;;;;6215043;23;20013;-65
2021/05/10 04:20:06;;;;;;;5.03;1.60;;;17.70;84.10;;;;;;6214823;23;20032;-67
2021/05/10 04:22:32;;;;;;;5.70;1.30;;;17.80;83.60;;;;;;6213781;23;20048;-65
2021/05/10 04:24:57;;;;;;;3.00;1.73;;;18.00;81.50;;;;;;6214747;23;20325;-65
2021/05/10 04:27:23;;;;;;;4.75;1.70;;;18.10;81.10;;;;;;6214794;23;20059;-65
2021/05/10 04:29:48;;;;;;;4.78;1.63;;;18.20;80.60;;;;;;6213824;23;20437;-65
2021/05/10 04:32:14;;;;;;;3.95;1.50;;;18.30;79.90;;;;;;6214403;23;20726;-65
2021/05/10 04:34:39;;;;;;;4.43;1.60;;;18.40;78.70;;;;;;6214848;23;20072;-64
2021/05/10 04:37:05;;;;;;;6.72;1.88;;;18.50;78.50;;;;;;6213763;23;20076;-65
2021/05/10 04:39:30;;;;;;;4.45;1.40;;;18.50;77.80;;;;;;6214526;23;20000;-64
2021/05/10 04:41:56;;;;;;;3.13;1.23;;;18.60;77.30;;;;;;6212290;23;20532;-64
2021/05/10 04:44:21;;;;;;;3.10;1.63;;;18.70;76.60;;;;;;6214131;23;20441;-64
2021/05/10 04:46:47;;;;;;;3.65;1.65;;;18.80;75.60;;;;;;6214868;23;20008;-65
2021/05/10 04:49:12;;;;;;;2.33;1.27;;;18.80;75.10;;;;;;6213884;23;20079;-64
2021/05/10 04:51:38;;;;;;;2.65;1.42;;;18.90;74.80;;;;;;6214736;23;20008;-66
2021/05/10 04:54:04;;;;;;;5.93;1.55;;;19.00;74.70;;;;;;6214288;23;20001;-65
2021/05/10 04:56:30;;;;;;;2.63;1.40;;;19.00;73.70;;;;;;6214096;23;20082;-65
2021/05/10 04:58:55;;;;;;;3.40;1.60;;;19.10;73.30;;;;;;6213034;23;20094;-64
2021/05/10 05:01:21;;;;;;;3.13;1.77;;;19.20;72.60;;;;;;6212809;23;20012;-64
2021/05/10 05:03:46;;;;;;;3.83;1.40;;;19.30;72.80;;;;;;6213584;23;20004;-65
2021/05/10 05:06:12;;;;;;;5.65;1.55;;;19.30;72.50;;;;;;6213760;23;20022;-64
2021/05/10 05:08:37;;;;;;;3.03;1.38;;;19.30;72.60;;;;;;6214018;23;20001;-66
2021/05/10 05:11:03;;;;;;;4.10;1.55;;;19.30;72.70;;;;;;6209991;23;20001;-65
2021/05/10 05:13:30;;;;;;;1.95;1.30;;;19.30;72.60;;;;;;6213843;23;20086;-66
2021/05/10 05:15:56;;;;;;;5.05;1.70;;;19.30;72.90;;;;;;6213861;23;20011;-67
2021/05/10 05:18:21;;;;;;;4.90;2.05;;;19.30;73.30;;;;;;6213239;23;20013;-65
2021/05/10 05:20:47;;;;;;;2.65;1.27;;;19.30;72.50;;;;;;6213815;23;20418;-72
2021/05/10 05:23:26;;;;;;;4.10;1.50;;;19.30;72.40;;;;;;6213732;23;20028;-71
2021/05/10 05:25:59;;;;;;;4.60;1.30;;;19.40;72.00;;;;;;6213173;23;20003;-72
2021/05/10 05:28:26;;;;;;;6.75;1.50;;;19.40;71.90;;;;;;6213874;23;20000;-74
2021/05/10 05:30:52;;;;;;;3.20;1.58;;;19.40;71.80;;;;;;6212074;23;20054;-71
2021/05/10 05:33:18;;;;;;;4.03;1.60;;;19.40;72.20;;;;;;6213312;23;20012;-69
2021/05/10 05:35:44;;;;;;;2.65;1.45;;;19.40;72.40;;;;;;6210864;23;20001;-68
2021/05/10 05:38:11;;;;;;;8.82;1.67;;;19.40;72.80;;;;;;6212878;23;20457;-68
2021/05/10 05:40:41;;;;;;;5.68;1.65;;;19.40;73.30;;;;;;6212108;23;20012;-68
2021/05/10 05:43:08;;;;;;;3.47;1.38;;;19.40;73.50;;;;;;6213007;23;20341;-68
2021/05/10 05:45:35;;;;;;;6.03;1.48;;;19.40;73.80;;;;;;6212225;23;19997;-70
2021/05/10 05:48:03;;;;;;;4.63;1.42;;;19.30;74.10;;;;;;6212167;23;20371;-67
2021/05/10 05:50:28;;;;;;;6.38;1.30;;;19.30;74.60;;;;;;6213848;23;20012;-67
2021/05/10 05:52:54;;;;;;;3.13;1.45;;;19.20;74.80;;;;;;6211593;23;20008;-66
2021/05/10 05:55:20;;;;;;;4.65;1.58;;;19.10;75.00;;;;;;6213729;23;20044;-67
2021/05/10 05:57:45;;;;;;;3.47;1.02;;;19.10;75.30;;;;;;6213871;23;20013;-67
2021/05/10 06:00:11;;;;;;;1.52;1.00;;;19.10;76.50;;;;;;6212890;23;20318;-67
2021/05/10 06:02:38;;;;;;;1.50;0.98;;;19.00;76.80;;;;;;6211452;23;20011;-66
2021/05/10 06:05:05;;;;;;;2.22;0.98;;;19.00;77.00;;;;;;6212928;23;20001;-66
2021/05/10 06:07:30;;;;;;;2.28;1.00;;;18.90;76.60;;;;;;6213214;23;20028;-66
2021/05/10 06:09:56;;;;;;;1.73;1.10;;;18.90;77.00;;;;;;6213622;23;20007;-67
2021/05/10 06:12:21;;;;;;;1.33;1.05;;;18.90;77.00;;;;;;6211443;23;20010;-67
2021/05/10 06:14:47;;;;;;;2.20;1.10;;;18.90;76.80;;;;;;6211106;23;19997;-67
2021/05/10 06:17:12;;;;;;;1.90;1.00;;;19.00;76.50;;;;;;6213519;23;20028;-67
2021/05/10 06:19:38;;;;;;;1.80;1.17;;;19.10;76.60;;;;;;6214283;23;20380;-66
2021/05/10 06:22:04;;;;;;;2.53;1.30;;;19.10;76.20;;;;;;6216474;23;20096;-68
2021/05/10 06:24:30;;;;;;;7.30;1.60;;;19.20;76.00;;;;;;6217110;23;20036;-67
2021/05/10 06:26:55;;;;;;;2.83;1.58;;;19.20;76.00;;;;;;6217393;23;20008;-68
2021/05/10 06:29:21;;;;;;;1.98;1.20;;;19.30;76.60;;;;;;6216322;23;20000;-68
2021/05/10 06:31:47;;;;;;;2.90;1.10;;;19.30;76.50;;;;;;6217128;23;20372;-68
2021/05/10 13:38:09;;;;;;;4.15;3.33;;;20.50;79.40;;;;;;6205011;22;19939;-67
2021/05/10 13:40:35;;;;;;;3.78;3.25;;;20.40;78.70;;;;;;6213049;23;20302;-68
2021/05/10 13:43:09;;;;;;;4.20;3.28;;;20.40;78.90;;;;;;6210478;23;20008;-69
2021/05/10 13:45:37;;;;;;;3.97;3.15;;;20.40;78.70;;;;;;6211759;23;20003;-69
2021/05/10 13:48:03;;;;;;;4.45;3.67;;;20.40;78.70;;;;;;6212657;23;20076;-70
2021/05/10 13:50:28;;;;;;;3.72;3.13;;;20.50;78.30;;;;;;6213407;23;20382;-68
2021/05/10 13:52:55;;;;;;;3.05;2.75;;;20.70;78.70;;;;;;6211691;23;20012;-69
2021/05/10 13:55:21;;;;;;;4.35;3.17;;;20.70;77.70;;;;;;6211727;23;20012;-69
2021/05/10 13:57:47;;;;;;;4.65;3.40;;;20.80;76.80;;;;;;6211140;23;20008;-69
2021/05/10 14:00:14;;;;;;;4.82;3.20;;;20.90;77.30;;;;;;6209766;23;20005;-68
2021/05/10 14:02:40;;;;;;;7.18;3.10;;;21.00;76.80;;;;;;6211582;23;20007;-68
2021/05/10 14:05:06;;;;;;;5.38;3.55;;;21.00;76.40;;;;;;6210239;23;20001;-67
2021/05/10 14:07:32;;;;;;;3.63;2.55;;;21.10;76.60;;;;;;6210916;23;20001;-68
2021/05/10 14:09:57;;;;;;;6.15;3.28;;;21.20;76.60;;;;;;6211414;23;20004;-67
2021/05/10 14:12:23;;;;;;;5.05;3.03;;;21.30;75.40;;;;;;6211331;23;20000;-68
2021/05/10 14:14:48;;;;;;;4.88;3.20;;;21.30;73.30;;;;;;6212777;23;20000;-69
2021/05/10 14:17:14;;;;;;;3.55;1.95;;;21.30;74.30;;;;;;6212483;23;20009;-69
2021/05/10 14:19:40;;;;;;;4.68;2.35;;;21.20;72.50;;;;;;6212416;23;20012;-69
2021/05/10 14:22:06;;;;;;;5.93;3.15;;;21.20;71.60;;;;;;6213252;23;20001;-69
2021/05/10 14:24:32;;;;;;;10.77;3.42;;;21.30;69.50;;;;;;6213280;23;20008;-67
2021/05/10 14:26:58;;;;;;;5.63;2.90;;;21.40;69.80;;;;;;6210939;23;20084;-68
2021/05/10 14:29:24;;;;;;;5.22;2.47;;;21.50;69.90;;;;;;6213561;23;20004;-70
2021/05/10 14:31:50;;;;;;;4.40;2.70;;;21.40;69.50;;;;;;6212720;23;20299;-66
2021/05/10 14:34:16;;;;;;;5.07;2.90;;;21.40;69.00;;;;;;6212426;23;20000;-70
2021/05/10 14:36:41;;;;;;;5.00;2.88;;;21.30;68.40;;;;;;6212939;23;20007;-69
2021/05/10 14:39:10;;;;;;;5.28;2.05;;;21.30;68.70;;;;;;6212711;23;20377;-70
2021/05/10 14:41:39;;;;;;;4.03;2.33;;;21.40;67.40;;;;;;6213483;23;20011;-71
2021/05/10 14:44:05;;;;;;;5.00;2.17;;;21.40;65.80;;;;;;6212909;23;20333;-69
2021/05/10 14:46:31;;;;;;;4.32;2.05;;;21.30;64.50;;;;;;6214875;23;20417;-70
2021/05/10 14:48:57;;;;;;;4.28;1.92;;;21.30;63.80;;;;;;6212880;23;20087;-69
2021/05/10 14:51:23;;;;;;;5.43;2.03;;;21.30;64.60;;;;;;6213572;23;20008;-70
2021/05/10 14:53:50;;;;;;;4.40;1.80;;;21.50;65.40;;;;;;6215165;23;19997;-70
2021/05/10 14:56:16;;;;;;;6.90;2.50;;;21.70;65.80;;;;;;6214101;23;20055;-70
2021/05/10 14:58:41;;;;;;;3.63;1.60;;;21.80;62.60;;;;;;6214861;23;20437;-71
2021/05/10 15:01:07;;;;;;;3.78;1.55;;;21.80;62.80;;;;;;6215092;23;19997;-71
2021/05/10 15:03:33;;;;;;;6.03;1.90;;;21.80;62.90;;;;;;6212062;23;20032;-70
2021/05/10 15:05:58;;;;;;;3.15;1.60;;;22.00;61.10;;;;;;6215311;23;20011;-70
2021/05/10 15:08:24;;;;;;;3.70;1.30;;;22.00;61.80;;;;;;6214703;23;20425;-68
2021/05/10 15:10:51;;;;;;;3.78;1.60;;;22.20;61.70;;;;;;6214996;23;20001;-71
2021/05/10 15:13:17;;;;;;;6.30;1.60;;;22.30;59.50;;;;;;6213529;23;20000;-68
2021/05/10 15:15:43;;;;;;;2.90;1.15;;;22.40;60.20;;;;;;6212088;23;19996;-69
2021/05/10 15:18:09;;;;;;;3.50;1.52;;;22.40;59.80;;;;;;6212692;23;20008;-68
2021/05/10 15:20:35;;;;;;;3.88;1.75;;;22.50;59.50;;;;;;6213549;23;20007;-68
2021/05/10 15:23:01;;;;;;;4.40;1.65;;;22.40;58.60;;;;;;6214048;23;20062;-68
2021/05/10 15:25:27;;;;;;;2.70;1.30;;;22.30;57.70;;;;;;6215058;23;19997;-69
2021/05/10 15:27:53;;;;;;;4.00;1.75;;;22.20;58.70;;;;;;6214023;23;20005;-69
2021/05/10 15:30:20;;;;;;;5.05;1.52;;;22.30;58.50;;;;;;6212423;23;20011;-69
2021/05/10 15:32:47;;;;;;;4.93;1.30;;;22.30;58.30;;;;;;6214281;23;20001;-69
2021/05/10 15:35:14;;;;;;;3.53;1.70;;;22.40;57.80;;;;;;6214818;23;19996;-68
2021/05/10 15:37:39;;;;;;;3.05;1.40;;;22.50;57.60;;;;;;6213915;23;20020;-68
2021/05/10 15:40:11;;;;;;;4.10;1.40;;;22.50;57.80;;;;;;6213169;23;20000;-68
2021/05/10 15:42:37;;;;;;;5.35;1.50;;;22.40;58.40;;;;;;6213956;23;20008;-68
2021/05/10 15:45:03;;;;;;;3.33;1.70;;;22.30;58.70;;;;;;6213708;23;20504;-67
2021/05/10 15:47:29;;;;;;;4.30;1.83;;;22.10;60.20;;;;;;6214344;23;20333;-67
2021/05/10 15:49:57;;;;;;;5.28;1.75;;;22.20;59.30;;;;;;6210845;23;20019;-68
2021/05/10 15:52:24;;;;;;;5.30;1.75;;;22.20;57.70;;;;;;6213743;23;20079;-68
2021/05/10 15:54:50;;;;;;;6.53;1.52;;;22.20;58.40;;;;;;6213068;23;20001;-69
2021/05/10 15:57:15;;;;;;;3.88;1.35;;;22.20;59.10;;;;;;6212397;23;20017;-71
2021/05/10 15:59:41;;;;;;;5.07;1.48;;;22.10;58.10;;;;;;6213436;23;20000;-68
2021/05/10 16:02:06;;;;;;;6.80;1.60;;;21.90;57.60;;;;;;6214508;23;20441;-68
2021/05/10 16:04:32;;;;;;;3.97;1.63;;;21.80;59.00;;;;;;6213734;23;20011;-70
2021/05/10 16:06:57;;;;;;;3.30;1.40;;;21.70;60.10;;;;;;6213162;23;20076;-69
2021/05/10 16:09:23;;;;;;;2.90;1.50;;;21.80;58.80;;;;;;6213267;23;20005;-70
2021/05/10 16:11:49;;;;;;;3.53;1.40;;;21.90;57.50;;;;;;6213279;23;20011;-70
2021/05/10 16:14:14;;;;;;;3.28;1.30;;;22.10;56.40;;;;;;6212482;23;20757;-68
2021/05/10 16:16:41;;;;;;;6.75;1.92;;;22.40;55.50;;;;;;6214026;23;19997;-69
2021/05/10 16:19:09;;;;;;;3.85;1.50;;;23.00;53.50;;;;;;6211960;23;20012;-68
2021/05/10 16:21:35;;;;;;;3.20;1.45;;;24.10;52.40;;;;;;6213869;23;20321;-66
2021/05/10 16:24:00;;;;;;;3.25;1.20;;;25.20;49.40;;;;;;6212975;23;20015;-70
2021/05/10 16:26:26;;;;;;;5.45;1.60;;;25.80;47.40;;;;;;6213507;23;20072;-70
2021/05/10 16:28:52;;;;;;;3.40;1.27;;;26.50;46.10;;;;;;6213568;23;20024;-74
2021/05/10 16:31:18;;;;;;;4.15;1.30;;;26.80;45.30;;;;;;6213962;23;20012;-70
2021/05/10 16:33:43;;;;;;;3.60;1.20;;;26.70;43.90;;;;;;6213367;23;20001;-70
2021/05/10 16:36:09;;;;;;;5.60;1.17;;;26.60;44.90;;;;;;6214160;23;20001;-67
2021/05/10 16:38:34;;;;;;;6.63;1.50;;;26.80;44.60;;;;;;6213836;23;20042;-66
2021/05/10 16:41:00;;;;;;;3.15;1.25;;;27.80;42.40;;;;;;6212551;23;20374;-65
2021/05/10 16:43:25;;;;;;;5.55;1.65;;;28.70;41.80;;;;;;6213299;23;20013;-69
2021/05/10 16:45:51;;;;;;;3.85;1.60;;;29.60;41.40;;;;;;6214195;23;20357;-66
2021/05/10 16:48:18;;;;;;;3.95;1.48;;;30.40;39.30;;;;;;6211020;23;20075;-66
2021/05/10 16:50:44;;;;;;;3.75;1.13;;;30.50;38.40;;;;;;6213949;23;20023;-67
2021/05/10 16:53:10;;;;;;;5.18;1.63;;;30.50;38.10;;;;;;6212311;23;20417;-73
2021/05/10 16:55:35;;;;;;;5.07;1.60;;;30.50;37.40;;;;;;6211850;23;20004;-69
2021/05/10 16:58:02;;;;;;;3.17;1.70;;;30.10;37.20;;;;;;6211877;23;20016;-69
2021/05/10 17:00:28;;;;;;;4.05;1.60;;;29.50;37.30;;;;;;6214322;23;20027;-66
2021/05/10 17:02:54;;;;;;;4.78;1.80;;;28.60;39.10;;;;;;6211798;23;20009;-66
2021/05/10 17:05:23;;;;;;;5.70;1.50;;;27.90;39.60;;;;;;6211403;23;20007;-68
2021/05/10 17:07:49;;;;;;;3.83;1.30;;;27.00;40.20;;;;;;6213739;23;20047;-67
2021/05/10 17:10:16;;;;;;;4.43;1.52;;;26.90;41.50;;;;;;6211427;23;20020;-65
2021/05/10 17:12:42;;;;;;;3.97;1.77;;;26.80;40.90;;;;;;6212978;23;20042;-66
2021/05/10 17:15:08;;;;;;;3.80;1.58;;;26.40;42.20;;;;;;6212860;23;20067;-66
2021/05/10 17:17:33;;;;;;;4.82;1.40;;;26.10;42.80;;;;;;6212487;23;20004;-66
2021/05/10 17:19:59;;;;;;;4.30;1.70;;;25.50;42.10;;;;;;6212717;23;20079;-65
2021/05/10 17:22:24;;;;;;;4.65;1.60;;;24.90;43.10;;;;;;6213305;23;20005;-70
2021/05/10 17:24:50;;;;;;;4.18;1.30;;;24.30;44.70;;;;;;6213428;23;20015;-67
2021/05/10 17:27:16;;;;;;;3.20;1.20;;;24.00;46.30;;;;;;6213090;23;20117;-65
2021/05/10 17:29:42;;;;;;;8.25;2.92;;;23.80;46.60;;;;;;6212775;23;20016;-65
2021/05/10 17:32:08;;;;;;;5.75;1.73;;;23.50;47.60;;;;;;6213639;23;20001;-67
2021/05/10 17:34:33;;;;;;;4.43;1.30;;;23.20;47.30;;;;;;6213424;23;20062;-69
2021/05/10 17:36:59;;;;;;;3.03;1.33;;;23.00;48.60;;;;;;6211585;23;19997;-69
2021/05/10 17:39:25;;;;;;;2.97;1.10;;;22.90;49.40;;;;;;6210576;23;20110;-68
2021/05/10 17:41:50;;;;;;;3.22;1.50;;;22.90;49.10;;;;;;6210810;23;20532;-70
2021/05/10 17:44:16;;;;;;;4.57;1.67;;;23.00;49.90;;;;;;6211545;23;20001;-70
2021/05/10 17:46:42;;;;;;;4.63;1.90;;;23.00;49.70;;;;;;6185804;23;20436;-68
2021/05/10 17:49:07;;;;;;;3.65;1.42;;;23.00;49.90;;;;;;6212910;23;20028;-69
2021/05/10 17:51:34;;;;;;;3.85;1.63;;;23.00;49.40;;;;;;6212194;23;20083;-68
2021/05/10 17:54:00;;;;;;;5.95;1.58;;;23.00;49.90;;;;;;6209285;23;20057;-72
2021/05/10 17:56:25;;;;;;;3.75;1.45;;;23.00;50.40;;;;;;6212917;23;20011;-72
2021/05/10 17:58:51;;;;;;;5.20;1.52;;;22.80;51.20;;;;;;6211775;23;20041;-69
2021/05/10 18:03:56;;;;;;;5.13;1.63;;;22.30;52.30;;;;;;6211834;23;20016;-67
2021/05/10 18:06:22;;;;;;;5.38;1.80;;;22.10;52.20;;;;;;6208240;23;20011;-69
2021/05/10 18:08:48;;;;;;;4.50;1.70;;;21.80;52.10;;;;;;6208738;23;20008;-67
2021/05/10 18:11:15;;;;;;;6.68;1.50;;;21.50;52.50;;;;;;6207490;23;20028;-69
2021/05/10 18:13:40;;;;;;;5.70;1.70;;;21.30;54.70;;;;;;6208194;23;20004;-67
2021/05/10 18:16:06;;;;;;;6.28;1.98;;;21.10;56.60;;;;;;6207135;23;20004;-68
2021/05/10 18:18:48;;;;;;;5.93;1.92;;;20.90;55.90;;;;;;6206225;23;20017;-70
2021/05/10 18:21:14;;;;;;;;;;;20.70;58.00;;;;;;6209019;23;20001;-65
2021/05/10 18:23:39;;;;;;;4.82;2.00;;;20.50;58.60;;;;;;6208994;23;19911;-71
2021/05/10 18:26:05;;;;;;;4.05;1.80;;;20.40;59.60;;;;;;6207802;23;20001;-67
2021/05/10 18:28:34;;;;;;;4.85;1.95;;;20.30;60.60;;;;;;6209599;23;20005;-69
2021/05/10 18:31:00;;;;;;;4.03;1.52;;;20.20;59.70;;;;;;6209407;23;20007;-66
2021/05/10 18:33:26;;;;;;;4.93;2.28;;;20.10;61.60;;;;;;6208886;23;20083;-72
2021/05/10 18:35:58;;;;;;;6.10;1.73;;;19.90;60.20;;;;;;6209188;23;20051;-65
2021/05/10 18:38:24;;;;;;;6.15;1.77;;;19.90;58.70;;;;;;6208563;23;20025;-69
2021/05/10 18:40:49;;;;;;;4.72;1.48;;;19.70;58.30;;;;;;6207939;23;20394;-69
2021/05/10 18:43:15;;;;;;;5.18;1.60;;;19.70;59.30;;;;;;6208148;23;20016;-70
2021/05/10 18:45:42;;;;;;;4.93;1.85;;;19.50;59.80;;;;;;6208529;23;20004;-65
2021/05/10 18:48:11;;;;;;;5.70;2.90;;;19.50;58.80;;;;;;6206306;23;20008;-66
2021/05/10 18:53:03;;;;;;;5.20;2.17;;;19.40;60.60;;;;;;6209364;23;20013;-68
2021/05/10 18:55:29;;;;;;;7.32;2.15;;;19.40;62.20;;;;;;6207675;23;20032;-65
2021/05/10 18:57:55;;;;;;;5.35;2.50;;;19.30;61.40;;;;;;6207766;23;20445;-65
2021/05/10 19:00:21;;;;;;;5.05;2.38;;;19.30;65.10;;;;;;6207438;23;20099;-64
2021/05/10 19:02:46;;;;;;;5.55;1.95;;;19.20;66.60;;;;;;6208011;23;20790;-66
2021/05/10 19:05:12;;;;;;;3.28;1.75;;;19.10;65.10;;;;;;6209022;23;20365;-67
2021/05/10 19:07:38;;;;;;;3.95;2.08;;;19.00;67.30;;;;;;6210947;23;20000;-65
2021/05/10 19:10:05;;;;;;;5.05;2.30;;;18.90;70.10;;;;;;6211521;23;20090;-70
2021/05/10 19:12:30;;;;;;;2.83;1.63;;;18.80;71.70;;;;;;6212365;23;20007;-64
2021/05/10 19:14:56;;;;;;;5.70;2.00;;;18.60;72.70;;;;;;6210301;23;20005;-69
2021/05/10 19:17:22;;;;;;;4.38;1.73;;;18.50;74.00;;;;;;6212605;23;20004;-65
2021/05/10 19:19:47;;;;;;;3.33;1.92;;;18.30;74.80;;;;;;6213112;23;20005;-70
2021/05/10 19:22:13;;;;;;;4.88;2.10;;;18.20;75.80;;;;;;6210620;23;20001;-69
2021/05/10 19:24:40;;;;;;;6.45;2.08;;;18.00;76.80;;;;;;6212725;23;20004;-70
2021/05/10 19:27:08;;;;;;;3.65;2.17;;;17.90;77.80;;;;;;6212882;23;20321;-67
2021/05/10 19:29:38;;;;;;;8.55;3.10;;;17.80;79.00;;;;;;6214448;23;20001;-65
2021/05/10 19:32:05;;;;;;;10.18;2.85;;;17.70;79.40;;;;;;6214333;23;20055;-68
2021/05/10 19:34:31;;;;;;;6.82;2.75;;;17.50;78.60;;;;;;6214526;23;20073;-64
2021/05/10 19:36:57;;;;;;;5.40;3.20;;;17.50;78.10;;;;;;6212070;23;20000;-65
2021/05/10 19:39:23;;;;;;;14.68;3.53;;;17.40;79.10;;;;;;6214438;23;20013;-64
2021/05/10 19:41:49;;;;;;;6.03;2.95;;;17.30;79.80;;;;;;6212850;23;20011;-64
2021/05/10 19:44:14;;;;;;;5.78;2.75;;;17.30;80.60;;;;;;6213252;23;20004;-64
2021/05/10 19:46:59;;;;;;;6.40;3.10;;;17.20;81.00;;;;;;6214600;23;20005;-64
2021/05/10 19:49:29;;;;;;;5.68;2.80;;;17.10;81.40;;;;;;6214589;23;20008;-64
2021/05/10 20:02:56;;;;;;;5.97;3.60;;;16.80;83.60;;;;;;6224682;23;20009;-68
2021/05/10 20:05:22;;;;;;;8.15;3.30;;;16.80;83.40;;;;;;6213719;23;20001;-68
2021/05/10 20:07:47;;;;;;;6.50;3.45;;;16.80;83.10;;;;;;6214559;23;20068;-65